Time;durP1;ratioP1;P1;durP2;ratioP2;P2;SDS_P1;SDS_P2;PMS_P1;PMS_P2;Temp;Humidity;BMP_temperature;BMP_pressure;BME280_temperature;BME280_humidity;BME280_pressure;Samples;Min_cycle;Max_cycle;Signal;HPM_P1;HPM_P2
2021/12/12 00:01:01;;;;;;;91.03;43.93;;;;;;;;;;2079855;28;20168;-67
2021/12/12 00:02:08;;;;;;;81.00;42.87;;;;;;;;;;2080647;28;20180;-65
2021/12/12 00:03:17;;;;;;;80.73;41.87;;;;;;;;;;2079488;28;20168;-68
2021/12/12 00:04:18;;;;;;;79.57;42.13;;;;;;;;;;2084567;28;20159;-66
2021/12/12 00:05:20;;;;;;;77.07;40.63;;;;;;;;;;2071398;28;20192;-67
2021/12/12 00:06:20;;;;;;;74.97;42.77;;;;;;;;;;2073196;28;20204;-68
2021/12/12 00:07:23;;;;;;;72.97;38.23;;;;;;;;;;2080666;28;20206;-67
2021/12/12 00:08:24;;;;;;;72.50;40.17;;;;;;;;;;2073521;28;20224;-67
2021/12/12 00:09:26;;;;;;;80.53;40.70;;;;;;;;;;2071819;28;20612;-68
2021/12/12 00:10:28;;;;;;;74.13;38.93;;;;;;;;;;2071971;28;20595;-67
2021/12/12 00:11:29;;;;;;;67.67;38.50;;;;;;;;;;2080499;28;20664;-68
2021/12/12 00:12:31;;;;;;;59.80;36.40;;;;;;;;;;2081327;28;20182;-67
2021/12/12 00:13:35;;;;;;;65.87;37.07;;;;;;;;;;2076413;28;20192;-67
2021/12/12 00:14:35;;;;;;;63.43;35.47;;;;;;;;;;2079765;28;20227;-68
2021/12/12 00:15:35;;;;;;;66.13;36.60;;;;;;;;;;2075777;28;20180;-67
2021/12/12 00:16:36;;;;;;;63.00;34.20;;;;;;;;;;2079431;28;20294;-66
2021/12/12 00:17:36;;;;;;;58.00;33.87;;;;;;;;;;2076842;28;20289;-67
2021/12/12 00:18:37;;;;;;;60.40;34.07;;;;;;;;;;2080507;28;20606;-68
2021/12/12 00:19:38;;;;;;;56.23;33.77;;;;;;;;;;2081385;28;20185;-68
2021/12/12 00:20:38;;;;;;;63.80;33.57;;;;;;;;;;2079216;28;20172;-67
2021/12/12 00:21:41;;;;;;;55.80;33.33;;;;;;;;;;2080140;28;20191;-67
2021/12/12 00:22:41;;;;;;;48.57;30.47;;;;;;;;;;2078092;28;20169;-68
2021/12/12 00:23:41;;;;;;;52.80;32.80;;;;;;;;;;2077110;28;20263;-67
2021/12/12 00:24:42;;;;;;;51.60;30.53;;;;;;;;;;2080264;28;20263;-67
2021/12/12 00:25:44;;;;;;;55.03;31.17;;;;;;;;;;2079475;28;20235;-67
2021/12/12 00:26:46;;;;;;;53.27;30.50;;;;;;;;;;2080413;28;20188;-67
2021/12/12 00:27:46;;;;;;;49.00;29.13;;;;;;;;;;2073539;28;20274;-67
2021/12/12 00:28:46;;;;;;;53.00;30.27;;;;;;;;;;2074959;28;20215;-67
2021/12/12 00:29:47;;;;;;;54.07;30.53;;;;;;;;;;2080969;28;20266;-66
2021/12/12 00:30:52;;;;;;;44.23;26.90;;;;;;;;;;2079839;28;20237;-67
2021/12/12 00:31:57;;;;;;;56.83;28.90;;;;;;;;;;2076140;28;20272;-68
2021/12/12 00:32:57;;;;;;;41.10;26.87;;;;;;;;;;2079941;28;20234;-67
2021/12/12 00:33:58;;;;;;;45.83;26.07;;;;;;;;;;2080001;28;20567;-67
2021/12/12 00:35:03;;;;;;;42.13;27.77;;;;;;;;;;2079393;28;20187;-67
2021/12/12 00:36:04;;;;;;;46.07;27.33;;;;;;;;;;2079036;28;20195;-67
2021/12/12 00:37:07;;;;;;;42.23;27.17;;;;;;;;;;2080708;28;20176;-68
2021/12/12 00:38:11;;;;;;;40.07;24.97;;;;;;;;;;2080170;28;20184;-66
2021/12/12 00:39:13;;;;;;;40.47;26.30;;;;;;;;;;2079956;28;20255;-67
2021/12/12 00:40:24;;;;;;;39.63;24.77;;;;;;;;;;2075924;28;20181;-67
2021/12/12 00:41:27;;;;;;;37.73;24.47;;;;;;;;;;2080721;28;20165;-68
2021/12/12 00:42:29;;;;;;;40.53;23.27;;;;;;;;;;2080187;28;20165;-68
2021/12/12 00:43:32;;;;;;;36.60;23.83;;;;;;;;;;2081206;28;20176;-67
2021/12/12 00:44:33;;;;;;;36.93;24.00;;;;;;;;;;2079414;28;20551;-68
2021/12/12 00:45:33;;;;;;;44.73;24.23;;;;;;;;;;2080083;28;20593;-67
2021/12/12 00:46:34;;;;;;;46.87;23.77;;;;;;;;;;2076369;28;20184;-67
2021/12/12 00:47:35;;;;;;;36.80;22.83;;;;;;;;;;2076747;28;20191;-67
2021/12/12 00:48:36;;;;;;;37.67;23.67;;;;;;;;;;2072130;28;20184;-68
2021/12/12 00:49:38;;;;;;;38.97;23.17;;;;;;;;;;2079104;28;20610;-67
2021/12/12 00:50:40;;;;;;;43.73;24.57;;;;;;;;;;2071316;28;20254;-67
2021/12/12 00:51:42;;;;;;;39.93;24.43;;;;;;;;;;2066065;28;20169;-67
2021/12/12 00:52:43;;;;;;;38.07;24.17;;;;;;;;;;2071719;28;20724;-67
2021/12/12 00:53:44;;;;;;;38.40;24.43;;;;;;;;;;2080476;28;20678;-67
2021/12/12 00:54:45;;;;;;;38.70;24.43;;;;;;;;;;2080655;28;20258;-68
2021/12/12 00:55:47;;;;;;;43.47;25.87;;;;;;;;;;2076374;28;20227;-68
2021/12/12 00:56:47;;;;;;;37.70;24.60;;;;;;;;;;2071910;28;20189;-68
2021/12/12 00:57:52;;;;;;;37.53;23.67;;;;;;;;;;2072483;28;20173;-68
2021/12/12 00:58:53;;;;;;;41.73;24.17;;;;;;;;;;2080847;28;20238;-67
2021/12/12 00:59:53;;;;;;;38.90;24.63;;;;;;;;;;2080174;28;20648;-68
2021/12/12 01:00:55;;;;;;;38.83;24.63;;;;;;;;;;2080893;28;20596;-67
2021/12/12 01:01:57;;;;;;;37.37;23.37;;;;;;;;;;2080296;28;20268;-66
2021/12/12 01:02:58;;;;;;;37.73;23.80;;;;;;;;;;2079423;28;20758;-67
2021/12/12 01:04:00;;;;;;;39.93;23.90;;;;;;;;;;2079908;28;20176;-67
2021/12/12 01:05:03;;;;;;;42.90;23.77;;;;;;;;;;2071221;28;20185;-66
2021/12/12 01:06:04;;;;;;;37.40;23.70;;;;;;;;;;2071359;28;20197;-66
2021/12/12 01:07:05;;;;;;;42.90;23.43;;;;;;;;;;2079862;28;20585;-66
2021/12/12 01:08:06;;;;;;;40.10;24.03;;;;;;;;;;2071591;28;20193;-66
2021/12/12 01:09:09;;;;;;;39.87;25.17;;;;;;;;;;2063808;28;20174;-66
2021/12/12 01:10:14;;;;;;;34.67;22.20;;;;;;;;;;2071113;28;20221;-66
2021/12/12 01:11:17;;;;;;;35.20;21.60;;;;;;;;;;2076504;28;20184;-66
2021/12/12 01:12:19;;;;;;;32.20;21.40;;;;;;;;;;2079134;28;20177;-65
2021/12/12 01:13:19;;;;;;;32.77;23.03;;;;;;;;;;2080084;28;20211;-66
2021/12/12 01:14:22;;;;;;;34.63;21.80;;;;;;;;;;2080102;28;20204;-65
2021/12/12 01:15:22;;;;;;;38.03;22.77;;;;;;;;;;2079930;28;20183;-67
2021/12/12 01:16:25;;;;;;;33.80;22.13;;;;;;;;;;2078219;28;20279;-67
2021/12/12 01:17:27;;;;;;;35.87;22.07;;;;;;;;;;2080086;28;20168;-65
2021/12/12 01:18:31;;;;;;;35.27;21.17;;;;;;;;;;2078063;28;20213;-66
2021/12/12 01:19:34;;;;;;;33.20;19.40;;;;;;;;;;2074477;28;20214;-66
2021/12/12 01:20:38;;;;;;;39.00;21.77;;;;;;;;;;2076842;28;20847;-67
2021/12/12 01:21:42;;;;;;;28.83;20.23;;;;;;;;;;2080165;28;20187;-67
2021/12/12 01:22:42;;;;;;;31.87;19.43;;;;;;;;;;2077401;28;20180;-67
2021/12/12 01:23:50;;;;;;;40.67;21.23;;;;;;;;;;2076264;28;20184;-67
2021/12/12 01:24:51;;;;;;;33.97;22.03;;;;;;;;;;2072108;28;20239;-67
2021/12/12 01:25:52;;;;;;;28.23;20.33;;;;;;;;;;2070545;28;20828;-66
2021/12/12 01:26:54;;;;;;;30.83;20.70;;;;;;;;;;2071341;28;20215;-67
2021/12/12 01:27:54;;;;;;;31.27;20.60;;;;;;;;;;2078462;28;20189;-67
2021/12/12 01:28:56;;;;;;;32.43;21.23;;;;;;;;;;2080177;28;20660;-68
2021/12/12 01:29:56;;;;;;;32.50;20.13;;;;;;;;;;2079928;28;20300;-66
2021/12/12 01:30:58;;;;;;;30.67;19.00;;;;;;;;;;2079808;28;20637;-66
2021/12/12 01:32:00;;;;;;;35.53;20.67;;;;;;;;;;2080632;28;20183;-66
2021/12/12 01:33:01;;;;;;;32.93;19.43;;;;;;;;;;2071629;28;20673;-66
2021/12/12 01:34:13;;;;;;;36.73;20.07;;;;;;;;;;2056891;28;20167;-67
2021/12/12 01:35:16;;;;;;;29.10;19.17;;;;;;;;;;2067702;28;20178;-67
2021/12/12 01:36:24;;;;;;;30.03;19.43;;;;;;;;;;2080067;28;20192;-66
2021/12/12 01:39:47;;;;;;;29.43;20.10;;;;;;;;;;2079714;28;20186;-66
2021/12/12 01:40:50;;;;;;;30.23;18.53;;;;;;;;;;2080188;28;20180;-66
2021/12/12 01:41:59;;;;;;;27.00;17.57;;;;;;;;;;2079624;28;20176;-67
2021/12/12 01:43:03;;;;;;;29.33;17.97;;;;;;;;;;2074102;28;20211;-68
2021/12/12 01:44:16;;;;;;;31.50;18.10;;;;;;;;;;2079339;28;20803;-65
2021/12/12 01:45:21;;;;;;;27.97;18.67;;;;;;;;;;2073090;28;20165;-68
2021/12/12 01:46:26;;;;;;;31.20;18.30;;;;;;;;;;2068936;28;20303;-67
2021/12/12 01:47:27;;;;;;;30.20;19.57;;;;;;;;;;2066394;28;20176;-67
2021/12/12 01:48:29;;;;;;;29.13;18.53;;;;;;;;;;2080497;28;20693;-68
2021/12/12 01:49:30;;;;;;;31.43;19.03;;;;;;;;;;2081030;28;20182;-68
2021/12/12 01:50:37;;;;;;;28.77;18.77;;;;;;;;;;2082287;28;20327;-64
2021/12/12 01:51:39;;;;;;;30.37;19.07;;;;;;;;;;2081953;28;20578;-66
2021/12/12 01:52:40;;;;;;;28.37;18.30;;;;;;;;;;2073275;28;20650;-66
2021/12/12 01:53:43;;;;;;;32.30;19.13;;;;;;;;;;2065758;28;20177;-65
2021/12/12 01:54:45;;;;;;;27.10;18.50;;;;;;;;;;2080630;28;20303;-66
2021/12/12 01:55:49;;;;;;;27.73;18.80;;;;;;;;;;2082233;28;20266;-64
2021/12/12 01:56:54;;;;;;;27.60;18.53;;;;;;;;;;2065623;28;20173;-66
2021/12/12 01:57:56;;;;;;;31.23;19.07;;;;;;;;;;2058469;28;20220;-65
2021/12/12 01:59:01;;;;;;;24.80;18.40;;;;;;;;;;2065810;28;20181;-66
2021/12/12 02:00:06;;;;;;;32.73;19.50;;;;;;;;;;2074780;28;20165;-65
2021/12/12 02:01:15;;;;;;;30.17;18.40;;;;;;;;;;2076688;28;20158;-66
2021/12/12 02:02:18;;;;;;;27.40;19.47;;;;;;;;;;2077483;28;20185;-67
2021/12/12 02:03:20;;;;;;;31.93;18.27;;;;;;;;;;2082885;28;20176;-66
2021/12/12 02:04:26;;;;;;;31.43;18.60;;;;;;;;;;2082753;28;20169;-66
2021/12/12 02:05:27;;;;;;;28.43;19.80;;;;;;;;;;2082396;28;20191;-66
2021/12/12 02:06:28;;;;;;;29.50;18.73;;;;;;;;;;2082571;28;20196;-67
2021/12/12 02:07:31;;;;;;;28.10;19.40;;;;;;;;;;2082794;28;20273;-66
2021/12/12 02:08:35;;;;;;;30.53;20.17;;;;;;;;;;2082712;28;20680;-65
2021/12/12 02:09:36;;;;;;;30.77;20.03;;;;;;;;;;2073701;28;20256;-65
2021/12/12 02:10:42;;;;;;;28.53;17.83;;;;;;;;;;2065316;28;20216;-65
2021/12/12 02:11:44;;;;;;;31.40;17.70;;;;;;;;;;2074430;28;20645;-65
2021/12/12 02:12:44;;;;;;;25.47;16.87;;;;;;;;;;2065708;28;20264;-66
2021/12/12 02:13:47;;;;;;;27.53;18.33;;;;;;;;;;2065582;28;20185;-66
2021/12/12 02:14:48;;;;;;;34.33;18.10;;;;;;;;;;2080367;28;20274;-66
2021/12/12 02:15:50;;;;;;;25.27;18.40;;;;;;;;;;2081709;28;20192;-66
2021/12/12 02:16:57;;;;;;;22.43;17.50;;;;;;;;;;2082204;28;20191;-66
2021/12/12 02:17:57;;;;;;;28.60;17.50;;;;;;;;;;2082103;28;20177;-66
2021/12/12 02:18:59;;;;;;;24.80;16.33;;;;;;;;;;2072467;28;20173;-66
2021/12/12 02:20:14;;;;;;;30.00;18.70;;;;;;;;;;2073610;28;20180;-65
2021/12/12 02:21:22;;;;;;;26.30;17.83;;;;;;;;;;2077125;28;20187;-67
2021/12/12 02:23:50;;;;;;;29.47;18.90;;;;;;;;;;2081413;28;20247;-67
2021/12/12 02:35:49;;;;;;;24.17;15.80;;;;;;;;;;2080352;28;20714;-66
2021/12/12 02:36:50;;;;;;;21.50;14.47;;;;;;;;;;2075301;28;20271;-65
2021/12/12 02:37:52;;;;;;;23.07;14.67;;;;;;;;;;2078687;28;20173;-66
2021/12/12 02:38:53;;;;;;;24.67;15.50;;;;;;;;;;2081463;28;20188;-66
2021/12/12 02:39:54;;;;;;;23.50;14.43;;;;;;;;;;2073412;28;20177;-66
2021/12/12 02:40:56;;;;;;;19.83;13.93;;;;;;;;;;2073679;28;20184;-66
2021/12/12 02:41:58;;;;;;;24.07;15.53;;;;;;;;;;2075320;28;20629;-66
2021/12/12 02:42:58;;;;;;;22.80;13.90;;;;;;;;;;2083828;28;20195;-66
2021/12/12 02:44:00;;;;;;;23.13;13.73;;;;;;;;;;2079590;28;20228;-65
2021/12/12 02:45:01;;;;;;;20.43;12.87;;;;;;;;;;2072364;28;20263;-66
2021/12/12 02:46:02;;;;;;;20.23;13.23;;;;;;;;;;2071693;28;20343;-66
2021/12/12 02:47:11;;;;;;;20.80;13.40;;;;;;;;;;2081072;28;20294;-66
2021/12/12 02:48:17;;;;;;;15.77;12.53;;;;;;;;;;2071134;28;20165;-66
2021/12/12 02:49:39;;;;;;;21.93;13.10;;;;;;;;;;2072717;28;20161;-66
2021/12/12 02:50:41;;;;;;;20.80;13.23;;;;;;;;;;2079945;28;20258;-65
2021/12/12 02:51:42;;;;;;;17.37;13.10;;;;;;;;;;2080806;28;20200;-66
2021/12/12 02:52:45;;;;;;;16.83;12.20;;;;;;;;;;2079717;28;20274;-66
2021/12/12 02:53:53;;;;;;;22.87;11.73;;;;;;;;;;2081299;28;20180;-65
2021/12/12 02:54:57;;;;;;;18.20;11.90;;;;;;;;;;2079991;28;20262;-66
2021/12/12 02:56:08;;;;;;;20.63;13.93;;;;;;;;;;2079133;28;20267;-65
2021/12/12 02:57:08;;;;;;;16.40;12.33;;;;;;;;;;2073012;28;20602;-68
2021/12/12 02:58:11;;;;;;;18.90;11.57;;;;;;;;;;2077435;28;20208;-66
2021/12/12 02:59:14;;;;;;;22.40;11.80;;;;;;;;;;2081883;28;20179;-66
2021/12/12 03:00:18;;;;;;;15.27;10.10;;;;;;;;;;2077132;28;20562;-67
2021/12/12 03:01:21;;;;;;;16.57;11.03;;;;;;;;;;2080699;28;20172;-67
2021/12/12 03:02:27;;;;;;;17.67;10.70;;;;;;;;;;2080835;28;20176;-66
2021/12/12 03:03:29;;;;;;;16.87;9.90;;;;;;;;;;2081504;28;20203;-65
2021/12/12 03:04:30;;;;;;;14.17;10.17;;;;;;;;;;2075663;28;20184;-66
2021/12/12 03:05:32;;;;;;;18.33;11.47;;;;;;;;;;2080610;28;20191;-67
2021/12/12 03:06:34;;;;;;;15.60;10.67;;;;;;;;;;2079821;28;20177;-66
2021/12/12 03:07:34;;;;;;;19.27;10.53;;;;;;;;;;2080016;28;20210;-66
2021/12/12 03:08:36;;;;;;;15.53;10.20;;;;;;;;;;2076733;28;20699;-67
2021/12/12 03:09:39;;;;;;;15.17;9.77;;;;;;;;;;2080517;28;20172;-66
2021/12/12 03:10:41;;;;;;;14.27;9.30;;;;;;;;;;2072833;28;20177;-67
2021/12/12 03:11:42;;;;;;;11.73;9.00;;;;;;;;;;2072637;28;20169;-66
2021/12/12 03:12:42;;;;;;;14.30;9.40;;;;;;;;;;2081640;28;20187;-67
2021/12/12 03:13:42;;;;;;;16.90;10.63;;;;;;;;;;2081045;28;20794;-66
2021/12/12 03:14:43;;;;;;;20.17;9.97;;;;;;;;;;2081457;28;20254;-66
2021/12/12 03:15:45;;;;;;;16.70;10.00;;;;;;;;;;2076878;28;20177;-67
2021/12/12 03:16:45;;;;;;;14.30;10.40;;;;;;;;;;2067027;28;20268;-67
2021/12/12 03:17:47;;;;;;;13.27;9.97;;;;;;;;;;2064237;28;20178;-67
2021/12/12 03:18:48;;;;;;;16.70;9.30;;;;;;;;;;2070807;28;20175;-66
2021/12/12 03:19:50;;;;;;;14.73;9.10;;;;;;;;;;2072384;28;20181;-66
2021/12/12 03:20:54;;;;;;;15.83;9.57;;;;;;;;;;2081452;28;20176;-65
2021/12/12 03:21:54;;;;;;;15.13;9.23;;;;;;;;;;2075337;28;20211;-66
2021/12/12 03:22:57;;;;;;;15.77;8.77;;;;;;;;;;2079600;28;20259;-66
2021/12/12 03:23:59;;;;;;;16.17;9.13;;;;;;;;;;2072583;28;20184;-66
2021/12/12 03:24:59;;;;;;;16.10;8.93;;;;;;;;;;2064457;28;20178;-65
2021/12/12 03:26:01;;;;;;;11.93;9.23;;;;;;;;;;2063329;28;20759;-66
2021/12/12 03:27:04;;;;;;;13.60;8.50;;;;;;;;;;2071794;28;20196;-66
2021/12/12 03:28:06;;;;;;;16.33;9.30;;;;;;;;;;2081510;28;20263;-66
2021/12/12 03:29:07;;;;;;;16.43;9.47;;;;;;;;;;2072522;28;20176;-67
2021/12/12 03:30:08;;;;;;;14.30;8.00;;;;;;;;;;2073702;28;20613;-66
2021/12/12 03:31:11;;;;;;;11.73;8.10;;;;;;;;;;2072279;28;20177;-67
2021/12/12 03:32:13;;;;;;;14.97;8.67;;;;;;;;;;2080476;28;20169;-66
2021/12/12 03:33:13;;;;;;;11.97;9.17;;;;;;;;;;2080833;28;20176;-66
2021/12/12 03:34:22;;;;;;;13.33;8.10;;;;;;;;;;2070772;28;20210;-65
2021/12/12 03:35:22;;;;;;;11.40;8.30;;;;;;;;;;2080825;28;20156;-66
2021/12/12 03:36:23;;;;;;;10.60;7.73;;;;;;;;;;2080936;28;20203;-66
2021/12/12 03:37:25;;;;;;;12.70;8.30;;;;;;;;;;2081683;28;20168;-66
2021/12/12 03:38:27;;;;;;;17.00;8.30;;;;;;;;;;2072918;28;20187;-66
2021/12/12 03:39:30;;;;;;;12.00;7.43;;;;;;;;;;2072462;28;20165;-66
2021/12/12 03:40:34;;;;;;;12.33;8.00;;;;;;;;;;2081689;28;20168;-66
2021/12/12 03:41:36;;;;;;;11.07;7.67;;;;;;;;;;2076409;28;20222;-68
2021/12/12 03:42:36;;;;;;;12.80;8.03;;;;;;;;;;2075277;28;20181;-65
2021/12/12 03:43:37;;;;;;;12.80;8.40;;;;;;;;;;2081674;28;20188;-67
2021/12/12 03:44:38;;;;;;;13.60;8.43;;;;;;;;;;2081741;28;20302;-68
2021/12/12 03:45:40;;;;;;;14.73;8.30;;;;;;;;;;2072041;28;20184;-68
2021/12/12 03:46:41;;;;;;;10.53;7.80;;;;;;;;;;2073001;28;20173;-66
2021/12/12 03:47:44;;;;;;;11.97;8.40;;;;;;;;;;2081548;28;20180;-67
2021/12/12 03:48:44;;;;;;;11.10;7.77;;;;;;;;;;2081444;28;20660;-66
2021/12/12 03:49:45;;;;;;;10.97;7.33;;;;;;;;;;2077384;28;20200;-67
2021/12/12 03:50:47;;;;;;;12.70;7.63;;;;;;;;;;2080354;28;20212;-67
2021/12/12 03:51:47;;;;;;;11.47;7.83;;;;;;;;;;2083170;28;20271;-66
2021/12/12 03:52:48;;;;;;;10.87;7.07;;;;;;;;;;2076999;28;20240;-66
2021/12/12 03:53:49;;;;;;;9.67;7.23;;;;;;;;;;2080514;28;20176;-67
2021/12/12 03:54:50;;;;;;;9.20;8.17;;;;;;;;;;2080776;28;20200;-67
2021/12/12 03:55:50;;;;;;;9.33;7.13;;;;;;;;;;2066113;28;20678;-66
2021/12/12 03:56:51;;;;;;;12.63;7.70;;;;;;;;;;2064558;28;20177;-66
2021/12/12 03:57:52;;;;;;;14.10;7.77;;;;;;;;;;2079299;28;20182;-66
2021/12/12 03:58:53;;;;;;;9.60;7.73;;;;;;;;;;2078806;28;20299;-67
2021/12/12 03:59:53;;;;;;;12.23;7.70;;;;;;;;;;2078871;28;20173;-67
2021/12/12 04:00:56;;;;;;;11.37;8.03;;;;;;;;;;2078543;28;20234;-67
2021/12/12 04:01:57;;;;;;;10.87;7.97;;;;;;;;;;2078405;28;20172;-66
2021/12/12 04:02:58;;;;;;;11.87;8.20;;;;;;;;;;2079393;28;20702;-67
2021/12/12 04:04:24;;;;;;;12.30;7.80;;;;;;;;;;2077968;28;20165;-66
2021/12/12 04:05:26;;;;;;;13.60;7.60;;;;;;;;;;2071258;28;20220;-66
2021/12/12 04:06:27;;;;;;;13.67;8.33;;;;;;;;;;2079868;28;20188;-68
2021/12/12 04:07:28;;;;;;;12.33;8.07;;;;;;;;;;2072358;28;20706;-66
2021/12/12 04:08:30;;;;;;;14.67;8.80;;;;;;;;;;2074291;28;20212;-65
2021/12/12 04:09:30;;;;;;;14.67;8.63;;;;;;;;;;2074616;28;20177;-66
2021/12/12 04:10:31;;;;;;;15.23;8.80;;;;;;;;;;2074177;28;20181;-66
2021/12/12 04:11:36;;;;;;;16.03;8.73;;;;;;;;;;2070071;28;20243;-66
2021/12/12 04:12:37;;;;;;;14.93;8.17;;;;;;;;;;2074264;28;20184;-67
2021/12/12 04:13:39;;;;;;;10.47;8.80;;;;;;;;;;2075835;28;20164;-66
2021/12/12 04:14:39;;;;;;;12.80;8.30;;;;;;;;;;2077539;28;20676;-66
2021/12/12 04:15:40;;;;;;;11.33;7.97;;;;;;;;;;2080074;28;20218;-67
2021/12/12 04:16:41;;;;;;;13.77;8.63;;;;;;;;;;2077910;28;20176;-67
2021/12/12 04:17:42;;;;;;;12.67;8.83;;;;;;;;;;2076990;28;20176;-67
2021/12/12 04:18:42;;;;;;;13.73;8.47;;;;;;;;;;2080160;28;20192;-66
2021/12/12 04:19:44;;;;;;;17.23;9.67;;;;;;;;;;2080434;28;20233;-66
2021/12/12 04:20:44;;;;;;;15.70;9.67;;;;;;;;;;2079425;28;20195;-66
2021/12/12 04:21:44;;;;;;;22.13;9.47;;;;;;;;;;2080474;28;20199;-66
2021/12/12 04:22:45;;;;;;;14.47;9.70;;;;;;;;;;2080671;28;20172;-66
2021/12/12 04:23:46;;;;;;;17.67;8.90;;;;;;;;;;2076914;28;20533;-67
2021/12/12 04:24:51;;;;;;;12.90;9.43;;;;;;;;;;2074802;28;20688;-67
2021/12/12 04:25:51;;;;;;;9.93;7.77;;;;;;;;;;2080876;28;20287;-67
2021/12/12 04:26:52;;;;;;;17.00;8.60;;;;;;;;;;2076802;28;20252;-66
2021/12/12 04:27:53;;;;;;;15.00;8.87;;;;;;;;;;2078595;28;20187;-67
2021/12/12 04:29:02;;;;;;;17.40;10.10;;;;;;;;;;2080386;28;20572;-66
2021/12/12 04:30:04;;;;;;;15.40;8.80;;;;;;;;;;2080564;28;20564;-67
2021/12/12 04:31:04;;;;;;;17.27;9.63;;;;;;;;;;2071797;28;20260;-67
2021/12/12 04:32:07;;;;;;;13.67;8.57;;;;;;;;;;2073149;28;20367;-67
2021/12/12 04:33:08;;;;;;;17.93;9.63;;;;;;;;;;2077328;28;20177;-67
2021/12/12 04:34:08;;;;;;;14.73;8.77;;;;;;;;;;2080407;28;20164;-67
2021/12/12 04:35:20;;;;;;;17.30;8.57;;;;;;;;;;2072372;28;20263;-67
2021/12/12 04:36:25;;;;;;;15.87;9.83;;;;;;;;;;2080131;28;20565;-67
2021/12/12 04:37:26;;;;;;;15.33;8.80;;;;;;;;;;2076317;28;20197;-67
2021/12/12 04:38:26;;;;;;;17.83;9.73;;;;;;;;;;2080528;28;20176;-66
2021/12/12 04:39:28;;;;;;;14.70;9.03;;;;;;;;;;2081050;28;20179;-66
2021/12/12 04:40:30;;;;;;;17.30;10.00;;;;;;;;;;2081061;28;20501;-67
2021/12/12 04:41:30;;;;;;;12.97;9.07;;;;;;;;;;2080458;28;20544;-68
2021/12/12 04:42:33;;;;;;;14.30;8.70;;;;;;;;;;2080722;28;20198;-68
2021/12/12 04:43:33;;;;;;;19.27;10.00;;;;;;;;;;2081232;28;20540;-66
2021/12/12 04:44:36;;;;;;;16.80;9.30;;;;;;;;;;2081437;28;20168;-67
2021/12/12 04:45:57;;;;;;;18.10;9.10;;;;;;;;;;2072204;28;20239;-66
2021/12/12 04:50:09;;;;;;;15.97;8.73;;;;;;;;;;2080998;28;20636;-66
2021/12/12 04:51:33;;;;;;;23.47;8.33;;;;;;;;;;2081288;28;20171;-66
2021/12/12 04:52:51;;;;;;;13.33;8.37;;;;;;;;;;2047667;28;20220;-66
2021/12/12 04:53:52;;;;;;;12.47;7.90;;;;;;;;;;2074765;28;20264;-66
2021/12/12 04:55:00;;;;;;;13.27;8.23;;;;;;;;;;2072356;28;20169;-67
2021/12/12 04:56:08;;;;;;;13.43;7.97;;;;;;;;;;2064675;28;20208;-68
2021/12/12 04:57:13;;;;;;;12.70;9.20;;;;;;;;;;2073352;28;20207;-67
2021/12/12 04:58:13;;;;;;;13.90;8.97;;;;;;;;;;2081247;28;20645;-66
2021/12/12 04:59:25;;;;;;;17.00;8.83;;;;;;;;;;2081751;28;20172;-68
2021/12/12 05:00:29;;;;;;;13.97;9.93;;;;;;;;;;2080761;28;20581;-66
2021/12/12 05:01:48;;;;;;;16.90;8.97;;;;;;;;;;2072425;28;20187;-67
2021/12/12 05:02:54;;;;;;;14.13;8.53;;;;;;;;;;2066801;28;20176;-67
2021/12/12 05:03:59;;;;;;;15.30;8.13;;;;;;;;;;2076254;28;20216;-66
2021/12/12 05:05:09;;;;;;;13.67;8.70;;;;;;;;;;2072506;28;20208;-66
2021/12/12 05:06:09;;;;;;;15.67;8.17;;;;;;;;;;2073323;28;20302;-67
2021/12/12 05:07:17;;;;;;;14.53;8.93;;;;;;;;;;2080935;28;20179;-67
2021/12/12 05:08:40;;;;;;;14.90;7.50;;;;;;;;;;2081337;28;20184;-66
2021/12/12 05:09:42;;;;;;;13.00;7.93;;;;;;;;;;2072724;28;20188;-66
2021/12/12 05:10:46;;;;;;;13.37;7.93;;;;;;;;;;2081061;28;20268;-68
2021/12/12 05:11:49;;;;;;;10.73;7.17;;;;;;;;;;2080986;28;20657;-67
2021/12/12 05:12:53;;;;;;;17.37;8.73;;;;;;;;;;2080826;28;20264;-67
2021/12/12 05:13:55;;;;;;;10.70;8.27;;;;;;;;;;2072519;28;20188;-66
2021/12/12 05:15:01;;;;;;;11.17;8.00;;;;;;;;;;2072690;28;20214;-66
2021/12/12 05:16:06;;;;;;;16.37;8.67;;;;;;;;;;2080953;28;20202;-67
2021/12/12 05:17:13;;;;;;;14.30;8.17;;;;;;;;;;2081090;28;20199;-67
2021/12/12 05:18:26;;;;;;;11.47;7.37;;;;;;;;;;2081576;28;20182;-67
2021/12/12 05:19:27;;;;;;;12.97;6.37;;;;;;;;;;2072709;28;20173;-66
2021/12/12 05:20:32;;;;;;;12.83;6.50;;;;;;;;;;2072549;28;20252;-67
2021/12/12 05:21:34;;;;;;;9.97;7.30;;;;;;;;;;2081616;28;20192;-67
2021/12/12 05:22:38;;;;;;;11.60;6.47;;;;;;;;;;2081634;28;20183;-67
2021/12/12 05:23:40;;;;;;;11.83;6.83;;;;;;;;;;2081400;28;20187;-67
2021/12/12 05:24:41;;;;;;;12.20;7.47;;;;;;;;;;2082365;28;20211;-67
2021/12/12 05:25:41;;;;;;;8.10;6.73;;;;;;;;;;2083462;28;20223;-66
2021/12/12 05:26:41;;;;;;;11.97;7.80;;;;;;;;;;2083142;28;20210;-67
2021/12/12 05:27:42;;;;;;;13.87;7.33;;;;;;;;;;2083220;28;20185;-67
2021/12/12 05:28:48;;;;;;;15.60;7.40;;;;;;;;;;2083094;28;20168;-67
2021/12/12 05:29:53;;;;;;;10.57;6.93;;;;;;;;;;2082605;28;20184;-66
2021/12/12 05:30:54;;;;;;;10.43;7.60;;;;;;;;;;2082541;28;20168;-67
2021/12/12 05:31:56;;;;;;;17.17;8.17;;;;;;;;;;2082443;28;20197;-67
2021/12/12 05:32:57;;;;;;;14.20;8.27;;;;;;;;;;2082739;28;20180;-66
2021/12/12 05:33:57;;;;;;;9.57;7.90;;;;;;;;;;2082374;28;20176;-67
2021/12/12 05:34:59;;;;;;;12.83;7.03;;;;;;;;;;2082760;28;20231;-67
2021/12/12 05:36:00;;;;;;;9.47;7.43;;;;;;;;;;2073321;28;20216;-66
2021/12/12 05:37:01;;;;;;;7.73;6.53;;;;;;;;;;2073718;28;20220;-67
2021/12/12 05:38:02;;;;;;;9.30;7.37;;;;;;;;;;2073694;28;20205;-67
2021/12/12 05:39:03;;;;;;;11.17;7.63;;;;;;;;;;2082656;28;20176;-67
2021/12/12 05:40:06;;;;;;;9.83;7.27;;;;;;;;;;2082387;28;20184;-68
2021/12/12 05:41:06;;;;;;;12.07;6.97;;;;;;;;;;2082662;28;20172;-67
2021/12/12 05:42:07;;;;;;;15.10;7.70;;;;;;;;;;2082185;28;20175;-67
2021/12/12 05:43:08;;;;;;;10.50;6.87;;;;;;;;;;2082529;28;20172;-67
2021/12/12 05:44:08;;;;;;;12.87;7.07;;;;;;;;;;2082557;28;20182;-67
2021/12/12 05:45:10;;;;;;;12.07;7.53;;;;;;;;;;2083277;28;20172;-68
2021/12/12 05:46:13;;;;;;;11.67;6.67;;;;;;;;;;2082137;28;20215;-67
2021/12/12 05:47:13;;;;;;;12.83;7.20;;;;;;;;;;2072493;28;20177;-68
2021/12/12 05:48:14;;;;;;;12.17;7.07;;;;;;;;;;2080537;28;20183;-67
2021/12/12 05:49:14;;;;;;;7.63;5.97;;;;;;;;;;2073712;28;20168;-68
2021/12/12 05:50:16;;;;;;;12.13;5.77;;;;;;;;;;2074663;28;20209;-68
2021/12/12 05:51:17;;;;;;;8.37;5.80;;;;;;;;;;2080919;28;20795;-69
2021/12/12 05:52:20;;;;;;;14.70;6.40;;;;;;;;;;2082355;28;20215;-68
2021/12/12 05:53:21;;;;;;;8.90;6.60;;;;;;;;;;2064029;28;20173;-68
2021/12/12 05:54:23;;;;;;;11.87;6.83;;;;;;;;;;2057251;28;20198;-69
2021/12/12 05:55:29;;;;;;;10.10;6.30;;;;;;;;;;2072778;28;20167;-66
2021/12/12 05:56:31;;;;;;;8.03;6.33;;;;;;;;;;2076380;28;20230;-66
2021/12/12 05:57:32;;;;;;;11.87;6.50;;;;;;;;;;2077157;28;20188;-67
2021/12/12 05:58:33;;;;;;;10.77;6.73;;;;;;;;;;2095837;22;20164;-54
2021/12/12 05:59:33;;;;;;;10.93;6.30;;;;;;;;;;2070678;28;20654;-55
2021/12/12 06:00:37;;;;;;;11.20;6.83;;;;;;;;;;2076558;28;20181;-51
2021/12/12 06:01:38;;;;;;;10.97;6.83;;;;;;;;;;2082785;28;20628;-53
2021/12/12 06:02:40;;;;;;;8.33;6.37;;;;;;;;;;2066047;28;20256;-53
2021/12/12 06:03:42;;;;;;;12.30;7.00;;;;;;;;;;2065472;28;20186;-53
2021/12/12 06:04:42;;;;;;;9.47;7.37;;;;;;;;;;2078496;28;20229;-53
2021/12/12 06:05:43;;;;;;;11.70;6.77;;;;;;;;;;2081951;28;20191;-51
2021/12/12 06:06:44;;;;;;;10.40;7.60;;;;;;;;;;2082088;28;20177;-55
2021/12/12 06:07:44;;;;;;;13.97;7.67;;;;;;;;;;2082459;28;20213;-53
2021/12/12 06:08:45;;;;;;;12.67;6.87;;;;;;;;;;2082463;28;20246;-53
2021/12/12 06:09:46;;;;;;;10.47;7.20;;;;;;;;;;2082470;28;20804;-52
2021/12/12 06:10:47;;;;;;;9.90;6.13;;;;;;;;;;2082453;28;20196;-55
2021/12/12 06:11:49;;;;;;;12.00;7.40;;;;;;;;;;2082775;28;20192;-51
2021/12/12 06:12:49;;;;;;;8.13;6.60;;;;;;;;;;2073931;28;20181;-52
2021/12/12 06:13:49;;;;;;;11.53;7.30;;;;;;;;;;2074007;28;20212;-51
2021/12/12 06:14:50;;;;;;;11.07;6.43;;;;;;;;;;2073681;28;20223;-54
2021/12/12 06:15:53;;;;;;;13.30;7.67;;;;;;;;;;2065709;28;20624;-52
2021/12/12 06:16:54;;;;;;;13.17;6.87;;;;;;;;;;2074496;28;20181;-50
2021/12/12 06:17:55;;;;;;;8.23;6.80;;;;;;;;;;2082553;28;20537;-56
2021/12/12 06:18:58;;;;;;;11.20;7.40;;;;;;;;;;2079085;28;20560;-53
2021/12/12 06:20:00;;;;;;;9.80;7.10;;;;;;;;;;2080089;28;20176;-54
2021/12/12 06:21:00;;;;;;;13.87;7.83;;;;;;;;;;2073197;28;20276;-55
2021/12/12 06:22:01;;;;;;;8.67;7.87;;;;;;;;;;2072194;28;20173;-54
2021/12/12 06:23:02;;;;;;;11.57;7.83;;;;;;;;;;2075729;28;20184;-50
2021/12/12 06:24:02;;;;;;;10.17;7.57;;;;;;;;;;2079748;28;20243;-52
2021/12/12 06:25:06;;;;;;;11.63;7.93;;;;;;;;;;2073025;28;20169;-57
2021/12/12 06:26:06;;;;;;;11.13;7.60;;;;;;;;;;2072623;28;20251;-53